createdAt,value
2018-08-23T00:00:45.573Z,1011.29
2018-08-23T00:01:54.981Z,1011.3
2018-08-23T00:03:03.936Z,1011.23
2018-08-23T00:04:13.569Z,1011.25
2018-08-23T00:05:22.983Z,1011.2
2018-08-23T00:06:32.383Z,1011.22
2018-08-23T00:07:41.525Z,1011.2
2018-08-23T00:08:51.464Z,1011.23
2018-08-23T00:10:00.862Z,1011.22
2018-08-23T00:11:10.834Z,1011.23
2018-08-23T00:12:20.502Z,1011.25
2018-08-23T00:13:29.920Z,1011.23
2018-08-23T00:14:39.632Z,1011.17
2018-08-23T00:15:48.788Z,1011.22
2018-08-23T00:16:58.266Z,1011.16
2018-08-23T00:18:07.954Z,1011.18
2018-08-23T00:19:17.401Z,1011.16
2018-08-23T00:20:26.562Z,1011.16
2018-08-23T00:21:36.303Z,1011.14
2018-08-23T00:22:44.931Z,1011.13
2018-08-23T00:23:54.343Z,1011.1
2018-08-23T00:25:04.266Z,1011.09
2018-08-23T00:26:13.940Z,1011.08
2018-08-23T00:27:23.350Z,1011.09
2018-08-23T00:28:32.502Z,1011.06
2018-08-23T00:29:41.667Z,1011.04
2018-08-23T00:30:51.330Z,1011.05
2018-08-23T00:32:00.513Z,1011.03
2018-08-23T00:33:10.437Z,1011.04
2018-08-23T00:34:19.591Z,1011.03
2018-08-23T00:35:29.007Z,1011
2018-08-23T00:36:38.433Z,1011
2018-08-23T00:37:47.585Z,1010.97
2018-08-23T00:38:57.250Z,1010.97
2018-08-23T00:40:06.920Z,1010.91
2018-08-23T00:41:16.630Z,1010.94
2018-08-23T00:42:26.302Z,1010.95
2018-08-23T00:43:35.703Z,1010.93
2018-08-23T00:44:44.869Z,1010.96
2018-08-23T00:45:54.028Z,1010.97
2018-08-23T00:47:03.446Z,1010.98
2018-08-23T00:48:12.595Z,1010.98
2018-08-23T00:49:22.022Z,1010.95
2018-08-23T00:50:31.735Z,1010.97
2018-08-23T00:51:40.903Z,1011.01
2018-08-23T00:52:50.565Z,1010.97
2018-08-23T00:53:59.705Z,1010.99
2018-08-23T00:55:09.313Z,1010.99
2018-08-23T00:56:19.232Z,1010.99
2018-08-23T00:57:28.383Z,1010.96
2018-08-23T00:58:38.048Z,1011
2018-08-23T00:59:47.465Z,1010.92
2018-08-23T01:00:57.119Z,1010.88
2018-08-23T01:02:06.325Z,1010.93
2018-08-23T01:03:15.759Z,1010.87
2018-08-23T01:04:25.726Z,1010.89
2018-08-23T01:05:35.133Z,1010.89
2018-08-23T01:06:44.898Z,1010.87
2018-08-23T01:07:54.041Z,1010.88
2018-08-23T01:09:03.707Z,1010.85
2018-08-23T01:10:13.384Z,1010.88
2018-08-23T01:11:23.039Z,1010.83
2018-08-23T01:12:32.699Z,1010.86
2018-08-23T01:13:42.377Z,1010.81
2018-08-23T01:14:51.790Z,1010.83
2018-08-23T01:16:01.197Z,1010.83
2018-08-23T01:17:10.633Z,1010.85
2018-08-23T01:18:19.997Z,1010.82
2018-08-23T01:19:29.930Z,1010.79
2018-08-23T01:20:39.074Z,1010.79
2018-08-23T01:21:48.737Z,1010.8
2018-08-23T01:22:58.192Z,1010.82
2018-08-23T01:24:07.372Z,1010.8
2018-08-23T01:25:17.037Z,1010.79
2018-08-23T01:26:26.189Z,1010.74
2018-08-23T01:27:35.851Z,1010.75
2018-08-23T01:28:44.997Z,1010.74
2018-08-23T01:29:54.422Z,1010.72
2018-08-23T01:31:03.828Z,1010.71
2018-08-23T01:32:13.527Z,1010.72
2018-08-23T01:33:23.211Z,1010.7
2018-08-23T01:34:33.417Z,1010.69
2018-08-23T01:35:42.821Z,1010.63
2018-08-23T01:36:52.496Z,1010.62
2018-08-23T01:38:01.638Z,1010.67
2018-08-23T01:39:11.627Z,1010.67
2018-08-23T01:40:21.038Z,1010.65
2018-08-23T01:41:30.515Z,1010.67
2018-08-23T01:42:39.913Z,1010.64
2018-08-23T01:43:49.326Z,1010.65
2018-08-23T01:44:58.730Z,1010.63
2018-08-23T01:46:08.129Z,1010.65
2018-08-23T01:47:17.281Z,1010.64
2018-08-23T01:48:26.759Z,1010.6
2018-08-23T01:49:36.410Z,1010.6
2018-08-23T01:50:46.088Z,1010.62
2018-08-23T01:51:55.493Z,1010.62
2018-08-23T01:53:04.639Z,1010.6
2018-08-23T01:54:13.811Z,1010.58
2018-08-23T01:55:22.975Z,1010.59
2018-08-23T01:56:32.387Z,1010.53
2018-08-23T01:57:41.826Z,1010.53
2018-08-23T01:58:51.483Z,1010.52
2018-08-23T02:00:00.623Z,1010.51
2018-08-23T02:01:10.089Z,1010.5
2018-08-23T02:02:19.781Z,1010.49
2018-08-23T02:03:28.979Z,1010.51
2018-08-23T02:04:38.130Z,1010.5
2018-08-23T02:05:47.276Z,1010.45
2018-08-23T02:06:56.681Z,1010.43
2018-08-23T02:08:05.569Z,1010.42
2018-08-23T02:09:14.999Z,1010.42
2018-08-23T02:10:24.654Z,1010.42
2018-08-23T02:11:34.317Z,1010.4
2018-08-23T02:12:43.760Z,1010.39
2018-08-23T02:13:53.186Z,1010.42
2018-08-23T02:15:02.327Z,1010.39
2018-08-23T02:16:11.270Z,1010.4
2018-08-23T02:17:20.703Z,1010.37
2018-08-23T02:18:30.110Z,1010.34
2018-08-23T02:19:39.256Z,1010.37
2018-08-23T02:20:48.675Z,1010.4
2018-08-23T02:21:58.347Z,1010.38
2018-08-23T02:23:06.975Z,1010.35
2018-08-23T02:24:16.381Z,1010.31
2018-08-23T02:25:26.047Z,1010.31
2018-08-23T02:26:35.487Z,1010.28
2018-08-23T02:27:44.892Z,1010.25
2018-08-23T02:28:54.810Z,1010.24
2018-08-23T02:30:04.217Z,1010.24
2018-08-23T02:31:13.645Z,1010.24
2018-08-23T02:32:23.055Z,1010.25
2018-08-23T02:33:31.957Z,1010.19
2018-08-23T02:34:41.631Z,1010.25
2018-08-23T02:35:51.048Z,1010.24
2018-08-23T02:37:00.723Z,1010.24
2018-08-23T02:38:10.202Z,1010.24
2018-08-23T02:39:20.019Z,1010.25
2018-08-23T02:40:29.950Z,1010.21
2018-08-23T02:41:39.410Z,1010.17
2018-08-23T02:42:49.190Z,1010.17
2018-08-23T02:43:58.081Z,1010.13
2018-08-23T02:45:07.765Z,1010.13
2018-08-23T02:46:17.176Z,1010.19
2018-08-23T02:47:26.879Z,1010.14
2018-08-23T02:48:36.350Z,1010.17
2018-08-23T02:49:45.764Z,1010.16
2018-08-23T02:50:55.180Z,1010.15
2018-08-23T02:52:05.103Z,1010.16
2018-08-23T02:53:14.775Z,1010.19
2018-08-23T02:54:24.501Z,1010.19
2018-08-23T02:55:33.914Z,1010.18
2018-08-23T02:56:43.596Z,1010.17
2018-08-23T02:57:53.278Z,1010.19
2018-08-23T02:59:02.961Z,1010.13
2018-08-23T03:00:12.121Z,1010.08
2018-08-23T03:01:21.809Z,1010.08
2018-08-23T03:02:31.278Z,1010.13
2018-08-23T03:03:40.447Z,1010.11
2018-08-23T03:04:50.371Z,1010.12
2018-08-23T03:05:59.589Z,1010.1
2018-08-23T03:07:08.736Z,1010.07
2018-08-23T03:08:18.152Z,1010.09
2018-08-23T03:09:27.813Z,1010.1
2018-08-23T03:10:37.489Z,1010.08
2018-08-23T03:11:46.903Z,1010.06
2018-08-23T03:12:56.587Z,1010.08
2018-08-23T03:14:06.273Z,1010.06
2018-08-23T03:15:16.060Z,1010.01
2018-08-23T03:16:25.484Z,1010
2018-08-23T03:17:34.894Z,1009.97
2018-08-23T03:18:44.313Z,1009.98
2018-08-23T03:19:53.214Z,1009.98
2018-08-23T03:21:02.874Z,1009.96
2018-08-23T03:22:12.582Z,1009.97
2018-08-23T03:23:21.999Z,1009.94
2018-08-23T03:24:31.679Z,1009.95
2018-08-23T03:25:41.072Z,1009.89
2018-08-23T03:26:49.975Z,1009.89
2018-08-23T03:27:59.643Z,1009.87
2018-08-23T03:29:08.868Z,1009.87
2018-08-23T03:30:18.298Z,1009.9
2018-08-23T03:31:27.985Z,1009.86
2018-08-23T03:32:37.400Z,1009.86
2018-08-23T03:33:46.289Z,1009.88
2018-08-23T03:34:56.200Z,1009.87
2018-08-23T03:36:05.359Z,1009.88
2018-08-23T03:37:15.036Z,1009.89
2018-08-23T03:38:24.446Z,1009.86
2018-08-23T03:39:33.591Z,1009.86
2018-08-23T03:40:43.263Z,1009.86
2018-08-23T03:41:52.415Z,1009.84
2018-08-23T03:43:01.563Z,1009.83
2018-08-23T03:44:11.235Z,1009.86
2018-08-23T03:45:20.640Z,1009.91
2018-08-23T03:46:30.302Z,1009.89
2018-08-23T03:47:39.488Z,1009.9
2018-08-23T03:48:48.705Z,1009.93
2018-08-23T03:49:58.396Z,1009.93
2018-08-23T03:51:07.812Z,1009.9
2018-08-23T03:52:16.699Z,1009.9
2018-08-23T03:53:25.950Z,1009.93
2018-08-23T03:54:35.383Z,1009.92
2018-08-23T03:55:45.082Z,1009.94
2018-08-23T03:56:55.067Z,1009.91
2018-08-23T03:58:04.477Z,1009.96
2018-08-23T03:59:14.147Z,1009.93
2018-08-23T04:00:23.575Z,1009.93
2018-08-23T04:01:33.235Z,1009.97
2018-08-23T04:02:42.899Z,1009.95
2018-08-23T04:03:52.044Z,1009.93
2018-08-23T04:05:00.931Z,1009.9
2018-08-23T04:06:10.114Z,1009.86
2018-08-23T04:07:19.271Z,1009.89
2018-08-23T04:08:28.412Z,1009.89
2018-08-23T04:09:37.583Z,1009.87
2018-08-23T04:10:46.995Z,1009.85
2018-08-23T04:11:56.393Z,1009.88
2018-08-23T04:13:05.403Z,1009.83
2018-08-23T04:14:15.074Z,1009.82
2018-08-23T04:15:24.612Z,1009.82
2018-08-23T04:16:33.631Z,1009.81
2018-08-23T04:17:43.348Z,1009.79
2018-08-23T04:18:52.824Z,1009.78
2018-08-23T04:20:02.497Z,1009.78
2018-08-23T04:21:11.919Z,1009.82
2018-08-23T04:22:21.327Z,1009.81
2018-08-23T04:23:30.748Z,1009.82
2018-08-23T04:24:40.415Z,1009.83
2018-08-23T04:25:49.834Z,1009.87
2018-08-23T04:26:59.265Z,1009.86
2018-08-23T04:28:08.672Z,1009.86
2018-08-23T04:29:17.858Z,1009.89
2018-08-23T04:30:27.531Z,1009.85
2018-08-23T04:31:36.972Z,1009.89
2018-08-23T04:32:45.912Z,1009.88
2018-08-23T04:33:55.570Z,1009.86
2018-08-23T04:35:04.974Z,1009.87
2018-08-23T04:36:14.463Z,1009.83
2018-08-23T04:37:23.873Z,1009.82
2018-08-23T04:38:33.302Z,1009.82
2018-08-23T04:39:42.738Z,1009.84
2018-08-23T04:40:51.897Z,1009.85
2018-08-23T04:42:01.582Z,1009.86
2018-08-23T04:43:11.287Z,1009.87
2018-08-23T04:44:20.956Z,1009.87
2018-08-23T04:45:30.362Z,1009.89
2018-08-23T04:46:39.273Z,1009.87
2018-08-23T04:47:48.931Z,1009.87
2018-08-23T04:48:58.083Z,1009.83
2018-08-23T04:50:07.517Z,1009.82
2018-08-23T04:51:17.024Z,1009.84
2018-08-23T04:52:25.916Z,1009.84
2018-08-23T04:53:35.836Z,1009.83
2018-08-23T04:54:45.511Z,1009.86
2018-08-23T04:55:54.929Z,1009.87
2018-08-23T04:57:03.833Z,1009.82
2018-08-23T04:58:13.259Z,1009.84
2018-08-23T04:59:22.416Z,1009.85
2018-08-23T05:00:31.843Z,1009.83
2018-08-23T05:01:41.533Z,1009.85
2018-08-23T05:02:51.470Z,1009.83
2018-08-23T05:04:00.727Z,1009.83
2018-08-23T05:05:10.895Z,1009.83
2018-08-23T05:06:20.820Z,1009.82
2018-08-23T05:07:30.753Z,1009.78
2018-08-23T05:08:39.895Z,1009.74
2018-08-23T05:09:49.081Z,1009.75
2018-08-23T05:10:58.236Z,1009.76
2018-08-23T05:12:07.894Z,1009.75
2018-08-23T05:13:17.578Z,1009.75
2018-08-23T05:14:27.329Z,1009.72
2018-08-23T05:15:36.991Z,1009.75
2018-08-23T05:16:46.138Z,1009.77
2018-08-23T05:17:55.544Z,1009.78
2018-08-23T05:19:05.287Z,1009.75
2018-08-23T05:20:14.702Z,1009.73
2018-08-23T05:21:23.870Z,1009.72
2018-08-23T05:22:33.803Z,1009.74
2018-08-23T05:23:43.732Z,1009.72
2018-08-23T05:24:53.414Z,1009.71
2018-08-23T05:26:02.911Z,1009.74
2018-08-23T05:27:12.069Z,1009.74
2018-08-23T05:28:21.476Z,1009.74
2018-08-23T05:29:31.420Z,1009.73
2018-08-23T05:30:40.582Z,1009.7
2018-08-23T05:31:50.250Z,1009.69
2018-08-23T05:32:59.925Z,1009.68
2018-08-23T05:34:09.091Z,1009.69
2018-08-23T05:35:19.058Z,1009.67
2018-08-23T05:36:28.456Z,1009.67
2018-08-23T05:37:37.613Z,1009.68
2018-08-23T05:38:47.274Z,1009.66
2018-08-23T05:39:57.045Z,1009.62
2018-08-23T05:41:06.252Z,1009.62
2018-08-23T05:42:15.139Z,1009.63
2018-08-23T05:43:24.536Z,1009.61
2018-08-23T05:44:33.195Z,1009.61
2018-08-23T05:45:42.852Z,1009.58
2018-08-23T05:46:52.265Z,1009.55
2018-08-23T05:48:01.427Z,1009.55
2018-08-23T05:49:10.832Z,1009.58
2018-08-23T05:50:20.264Z,1009.57
2018-08-23T05:51:29.943Z,1009.55
2018-08-23T05:52:39.352Z,1009.58
2018-08-23T05:53:48.238Z,1009.58
2018-08-23T05:54:57.936Z,1009.59
2018-08-23T05:56:07.146Z,1009.58
2018-08-23T05:57:16.295Z,1009.55
2018-08-23T05:58:25.478Z,1009.54
2018-08-23T05:59:34.908Z,1009.57
2018-08-23T06:00:44.645Z,1009.54
2018-08-23T06:01:54.316Z,1009.57
2018-08-23T06:03:03.733Z,1009.55
2018-08-23T06:04:13.155Z,1009.49
2018-08-23T06:05:22.324Z,1009.47
2018-08-23T06:06:32.011Z,1009.47
2018-08-23T06:07:41.932Z,1009.47
2018-08-23T06:08:50.826Z,1009.47
2018-08-23T06:10:00.513Z,1009.45
2018-08-23T06:11:09.420Z,1009.46
2018-08-23T06:12:19.088Z,1009.48
2018-08-23T06:13:29.010Z,1009.46
2018-08-23T06:14:38.164Z,1009.47
2018-08-23T06:15:47.564Z,1009.49
2018-08-23T06:16:56.798Z,1009.47
2018-08-23T06:18:06.477Z,1009.47
2018-08-23T06:19:15.883Z,1009.46
2018-08-23T06:20:25.039Z,1009.43
2018-08-23T06:21:34.704Z,1009.45
2018-08-23T06:22:44.115Z,1009.47
2018-08-23T06:23:53.528Z,1009.44
2018-08-23T06:25:03.250Z,1009.46
2018-08-23T06:26:12.654Z,1009.45
2018-08-23T06:27:21.869Z,1009.43
2018-08-23T06:28:32.378Z,1009.44
2018-08-23T06:29:41.519Z,1009.41
2018-08-23T06:30:50.410Z,1009.42
2018-08-23T06:32:00.079Z,1009.43
2018-08-23T06:33:09.783Z,1009.44
2018-08-23T06:34:21.020Z,1009.47
2018-08-23T06:35:30.730Z,1009.49
2018-08-23T06:36:40.820Z,1009.47
2018-08-23T06:37:49.987Z,1009.48
2018-08-23T06:38:59.141Z,1009.44
2018-08-23T06:40:08.043Z,1009.44
2018-08-23T06:41:17.463Z,1009.44
2018-08-23T06:42:26.621Z,1009.43
2018-08-23T06:43:35.777Z,1009.43
2018-08-23T06:44:45.186Z,1009.45
2018-08-23T06:45:54.611Z,1009.43
2018-08-23T06:47:04.511Z,1009.45
2018-08-23T06:48:14.166Z,1009.42
2018-08-23T06:49:23.594Z,1009.43
2018-08-23T06:50:33.347Z,1009.42
2018-08-23T06:51:42.771Z,1009.43
2018-08-23T06:52:52.184Z,1009.43
2018-08-23T06:54:01.656Z,1009.4
2018-08-23T06:55:11.137Z,1009.47
2018-08-23T06:56:20.602Z,1009.49
2018-08-23T06:57:29.490Z,1009.49
2018-08-23T06:58:38.893Z,1009.48
2018-08-23T06:59:48.389Z,1009.5
2018-08-23T07:00:58.057Z,1009.5
2018-08-23T07:02:07.202Z,1009.51
2018-08-23T07:03:17.193Z,1009.49
2018-08-23T07:04:26.861Z,1009.47
2018-08-23T07:05:36.067Z,1009.5
2018-08-23T07:06:45.598Z,1009.51
2018-08-23T07:07:55.604Z,1009.53
2018-08-23T07:09:05.529Z,1009.53
2018-08-23T07:10:14.951Z,1009.52
2018-08-23T07:11:24.395Z,1009.55
2018-08-23T07:12:34.134Z,1009.55
2018-08-23T07:13:43.816Z,1009.56
2018-08-23T07:14:53.478Z,1009.58
2018-08-23T07:16:02.883Z,1009.52
2018-08-23T07:17:12.373Z,1009.55
2018-08-23T07:18:22.691Z,1009.54
2018-08-23T07:19:32.380Z,1009.56
2018-08-23T07:20:41.799Z,1009.54
2018-08-23T07:21:50.956Z,1009.56
2018-08-23T07:23:00.428Z,1009.63
2018-08-23T07:24:09.867Z,1009.65
2018-08-23T07:25:19.165Z,1009.63
2018-08-23T07:26:28.598Z,1009.63
2018-08-23T07:27:38.070Z,1009.62
2018-08-23T07:28:47.751Z,1009.63
2018-08-23T07:29:57.244Z,1009.6
2018-08-23T07:31:06.332Z,1009.62
2018-08-23T07:32:15.776Z,1009.64
2018-08-23T07:33:25.465Z,1009.65
2018-08-23T07:34:35.261Z,1009.66
2018-08-23T07:35:44.683Z,1009.64
2018-08-23T07:36:53.946Z,1009.62
2018-08-23T07:38:03.878Z,1009.63
2018-08-23T07:39:13.637Z,1009.6
2018-08-23T07:40:24.191Z,1009.62
2018-08-23T07:41:33.356Z,1009.58
2018-08-23T07:42:42.772Z,1009.61
2018-08-23T07:43:52.507Z,1009.59
2018-08-23T07:45:02.175Z,1009.63
2018-08-23T07:46:11.601Z,1009.61
2018-08-23T07:47:21.533Z,1009.59
2018-08-23T07:48:31.072Z,1009.52
2018-08-23T07:49:41.126Z,1009.55
2018-08-23T07:50:50.860Z,1009.55
2018-08-23T07:52:00.270Z,1009.53
2018-08-23T07:53:09.541Z,1009.54
2018-08-23T07:54:19.512Z,1009.53
2018-08-23T07:55:28.919Z,1009.5
2018-08-23T07:56:37.556Z,1009.49
2018-08-23T07:57:46.968Z,1009.48
2018-08-23T07:58:56.634Z,1009.47
2018-08-23T08:00:05.524Z,1009.49
2018-08-23T08:01:14.742Z,1009.48
2018-08-23T08:02:24.485Z,1009.52
2018-08-23T08:03:33.639Z,1009.52
2018-08-23T08:04:43.056Z,1009.48
2018-08-23T08:05:52.995Z,1009.49
2018-08-23T08:07:02.903Z,1009.51
2018-08-23T08:08:12.071Z,1009.5
2018-08-23T08:09:21.759Z,1009.5
2018-08-23T08:10:30.920Z,1009.52
2018-08-23T08:11:40.354Z,1009.52
2018-08-23T08:12:49.789Z,1009.55
2018-08-23T08:13:59.460Z,1009.54
2018-08-23T08:15:09.570Z,1009.54
2018-08-23T08:16:19.767Z,1009.53
2018-08-23T08:17:28.926Z,1009.57
2018-08-23T08:18:38.619Z,1009.53
2018-08-23T08:19:48.552Z,1009.56
2018-08-23T08:20:58.301Z,1009.57
2018-08-23T08:22:08.082Z,1009.53
2018-08-23T08:23:17.834Z,1009.53
2018-08-23T08:24:27.256Z,1009.56
2018-08-23T08:25:37.169Z,1009.55
2018-08-23T08:26:46.835Z,1009.55
2018-08-23T08:27:56.502Z,1009.49
2018-08-23T08:29:05.984Z,1009.49
2018-08-23T08:30:15.641Z,1009.51
2018-08-23T08:31:25.333Z,1009.48
2018-08-23T08:32:34.743Z,1009.48
2018-08-23T08:33:43.918Z,1009.46
2018-08-23T08:34:53.847Z,1009.46
2018-08-23T08:36:03.003Z,1009.4
2018-08-23T08:37:12.984Z,1009.42
2018-08-23T08:38:22.704Z,1009.4
2018-08-23T08:39:32.127Z,1009.42
2018-08-23T08:40:41.834Z,1009.43
2018-08-23T08:41:51.519Z,1009.38
2018-08-23T08:43:01.716Z,1009.35
2018-08-23T08:44:10.673Z,1009.37
2018-08-23T08:45:20.610Z,1009.34
2018-08-23T08:46:29.770Z,1009.34
2018-08-23T08:47:39.181Z,1009.35
2018-08-23T08:48:48.416Z,1009.3
2018-08-23T08:49:57.873Z,1009.28
2018-08-23T08:51:07.302Z,1009.31
2018-08-23T08:52:16.455Z,1009.33
2018-08-23T08:53:25.855Z,1009.35
2018-08-23T08:54:35.808Z,1009.29
2018-08-23T08:55:45.293Z,1009.29
2018-08-23T08:56:55.051Z,1009.28
2018-08-23T08:58:04.864Z,1009.3
2018-08-23T08:59:14.018Z,1009.29
2018-08-23T09:00:23.691Z,1009.29
2018-08-23T09:01:33.369Z,1009.2
2018-08-23T09:02:42.806Z,1009.23
2018-08-23T09:03:52.629Z,1009.21
2018-08-23T09:05:02.071Z,1009.17
2018-08-23T09:06:11.733Z,1009.17
2018-08-23T09:07:21.414Z,1009.15
2018-08-23T09:08:30.582Z,1009.12
2018-08-23T09:09:40.034Z,1009.12
2018-08-23T09:10:49.827Z,1009.15
2018-08-23T09:11:59.742Z,1009.16
2018-08-23T09:13:09.419Z,1009.12
2018-08-23T09:14:18.594Z,1009.1
2018-08-23T09:15:28.000Z,1009.05
2018-08-23T09:16:37.457Z,1009.11
2018-08-23T09:17:46.344Z,1009.09
2018-08-23T09:18:56.007Z,1009.1
2018-08-23T09:20:05.401Z,1009.07
2018-08-23T09:21:14.814Z,1009.06
2018-08-23T09:22:24.279Z,1009.04
2018-08-23T09:23:33.474Z,1009.06
2018-08-23T09:24:43.476Z,1009.01
2018-08-23T09:25:53.384Z,1009.04
2018-08-23T09:27:02.822Z,1009.05
2018-08-23T09:28:12.648Z,1008.99
2018-08-23T09:29:21.306Z,1008.98
2018-08-23T09:30:30.734Z,1009
2018-08-23T09:31:40.451Z,1008.97
2018-08-23T09:32:49.363Z,1009.01
2018-08-23T09:33:59.277Z,1008.98
2018-08-23T09:35:08.701Z,1008.98
2018-08-23T09:36:18.188Z,1009.02
2018-08-23T09:37:27.369Z,1009.01
2018-08-23T09:38:36.790Z,1009.02
2018-08-23T09:39:46.481Z,1009
2018-08-23T09:40:55.892Z,1009.01
2018-08-23T09:42:05.295Z,1008.99
2018-08-23T09:43:14.189Z,1009.01
2018-08-23T09:44:23.332Z,1008.98
2018-08-23T09:45:32.775Z,1008.93
2018-08-23T09:46:42.451Z,1008.92
2018-08-23T09:47:52.380Z,1008.94
2018-08-23T09:49:01.564Z,1008.93
2018-08-23T09:50:11.277Z,1008.97
2018-08-23T09:51:21.656Z,1008.97
2018-08-23T09:52:31.333Z,1008.97
2018-08-23T09:53:40.752Z,1008.95
2018-08-23T09:54:50.062Z,1008.92
2018-08-23T09:55:59.480Z,1008.92
2018-08-23T09:57:08.632Z,1008.88
2018-08-23T09:58:18.052Z,1008.84
2018-08-23T09:59:27.006Z,1008.79
2018-08-23T10:00:36.408Z,1008.81
2018-08-23T10:01:46.316Z,1008.83
2018-08-23T10:02:55.724Z,1008.82
2018-08-23T10:04:05.138Z,1008.81
2018-08-23T10:05:15.285Z,1008.83
2018-08-23T10:06:24.686Z,1008.81
2018-08-23T10:07:34.098Z,1008.79
2018-08-23T10:08:43.260Z,1008.78
2018-08-23T10:09:52.934Z,1008.75
2018-08-23T10:11:02.604Z,1008.76
2018-08-23T10:12:12.561Z,1008.7
2018-08-23T10:13:21.714Z,1008.67
2018-08-23T10:14:31.116Z,1008.7
2018-08-23T10:15:40.521Z,1008.69
2018-08-23T10:16:49.674Z,1008.69
2018-08-23T10:17:59.149Z,1008.64
2018-08-23T10:19:08.825Z,1008.64
2018-08-23T10:20:18.027Z,1008.59
2018-08-23T10:21:27.435Z,1008.6
2018-08-23T10:22:36.343Z,1008.56
2018-08-23T10:23:45.792Z,1008.56
2018-08-23T10:24:54.948Z,1008.57
2018-08-23T10:26:04.102Z,1008.57
2018-08-23T10:27:14.033Z,1008.54
2018-08-23T10:28:24.021Z,1008.54
2018-08-23T10:29:33.446Z,1008.54
2018-08-23T10:30:42.857Z,1008.52
2018-08-23T10:31:51.997Z,1008.53
2018-08-23T10:33:01.798Z,1008.54
2018-08-23T10:34:11.518Z,1008.53
2018-08-23T10:35:20.680Z,1008.51
2018-08-23T10:36:30.082Z,1008.51
2018-08-23T10:37:40.045Z,1008.49
2018-08-23T10:38:49.245Z,1008.53
2018-08-23T10:39:58.963Z,1008.47
2018-08-23T10:41:08.402Z,1008.49
2018-08-23T10:42:17.817Z,1008.5
2018-08-23T10:43:27.019Z,1008.48
2018-08-23T10:44:36.204Z,1008.5
2018-08-23T10:45:45.954Z,1008.44
2018-08-23T10:46:55.889Z,1008.48
2018-08-23T10:48:05.613Z,1008.47
2018-08-23T10:49:14.890Z,1008.45
2018-08-23T10:50:23.823Z,1008.47
2018-08-23T10:51:33.311Z,1008.45
2018-08-23T10:52:43.015Z,1008.45
2018-08-23T10:53:52.511Z,1008.45
2018-08-23T10:55:02.188Z,1008.46
2018-08-23T10:56:11.635Z,1008.43
2018-08-23T10:57:20.802Z,1008.39
2018-08-23T10:58:30.488Z,1008.41
2018-08-23T10:59:40.162Z,1008.4
2018-08-23T11:00:50.122Z,1008.37
2018-08-23T11:01:59.349Z,1008.4
2018-08-23T11:03:08.791Z,1008.33
2018-08-23T11:04:18.476Z,1008.39
2018-08-23T11:05:27.922Z,1008.34
2018-08-23T11:06:37.637Z,1008.35
2018-08-23T11:07:47.340Z,1008.34
2018-08-23T11:08:56.789Z,1008.38
2018-08-23T11:10:06.245Z,1008.35
2018-08-23T11:11:15.658Z,1008.38
2018-08-23T11:12:24.568Z,1008.42
2018-08-23T11:13:33.999Z,1008.37
2018-08-23T11:14:43.413Z,1008.35
2018-08-23T11:15:53.148Z,1008.37
2018-08-23T11:17:02.734Z,1008.38
2018-08-23T11:18:13.006Z,1008.34
2018-08-23T11:19:22.451Z,1008.37
2018-08-23T11:20:31.600Z,1008.33
2018-08-23T11:21:41.275Z,1008.32
2018-08-23T11:22:50.948Z,1008.3
2018-08-23T11:24:00.456Z,1008.33
2018-08-23T11:25:10.117Z,1008.3
2018-08-23T11:26:19.317Z,1008.24
2018-08-23T11:27:28.510Z,1008.24
2018-08-23T11:28:38.194Z,1008.22
2018-08-23T11:29:47.918Z,1008.23
2018-08-23T11:30:57.870Z,1008.22
2018-08-23T11:32:07.323Z,1008.2
2018-08-23T11:33:16.465Z,1008.19
2018-08-23T11:34:26.120Z,1008.25
2018-08-23T11:35:35.013Z,1008.24
2018-08-23T11:36:44.451Z,1008.19
2018-08-23T11:37:53.902Z,1008.18
2018-08-23T11:39:03.607Z,1008.2
2018-08-23T11:40:13.075Z,1008.19
2018-08-23T11:41:22.821Z,1008.22
2018-08-23T11:42:31.745Z,1008.19
2018-08-23T11:43:41.542Z,1008.22
2018-08-23T11:44:50.993Z,1008.18
2018-08-23T11:46:00.414Z,1008.15
2018-08-23T11:47:09.636Z,1008.16
2018-08-23T11:48:19.071Z,1008.12
2018-08-23T11:49:28.903Z,1008.12
2018-08-23T11:50:38.603Z,1008.07
2018-08-23T11:51:48.274Z,1008.05
2018-08-23T11:52:57.714Z,1008.12
2018-08-23T11:54:06.983Z,1008.09
2018-08-23T11:55:16.676Z,1008.1
2018-08-23T11:56:25.853Z,1008.04
2018-08-23T11:57:35.533Z,1008.08
2018-08-23T11:58:44.703Z,1008.07
2018-08-23T11:59:53.863Z,1008.02
2018-08-23T12:01:03.021Z,1008.05
2018-08-23T12:02:12.707Z,1008.03
2018-08-23T12:03:22.127Z,1008.1
2018-08-23T12:04:31.579Z,1008.1
2018-08-23T12:05:41.515Z,1008.04
2018-08-23T12:06:50.685Z,1008.12
2018-08-23T12:08:00.665Z,1008.09
2018-08-23T12:09:10.341Z,1008.04
2018-08-23T12:10:19.552Z,1008.01
2018-08-23T12:11:29.285Z,1008.01
2018-08-23T12:12:38.265Z,1007.99
2018-08-23T12:13:47.674Z,1008
2018-08-23T12:14:57.647Z,1007.97
2018-08-23T12:16:07.419Z,1007.99
2018-08-23T12:17:16.834Z,1008.04
2018-08-23T12:18:26.238Z,1007.97
2018-08-23T12:19:35.135Z,1008.03
2018-08-23T12:20:44.608Z,1008.02
2018-08-23T12:21:54.021Z,1007.98
2018-08-23T12:23:03.692Z,1007.97
2018-08-23T12:24:12.846Z,1007.94
2018-08-23T12:25:22.041Z,1007.92
2018-08-23T12:26:31.773Z,1007.9
2018-08-23T12:27:41.026Z,1007.89
2018-08-23T12:28:50.184Z,1007.86
2018-08-23T12:30:00.122Z,1007.87
2018-08-23T12:31:09.337Z,1007.88
2018-08-23T12:32:18.253Z,1007.89
2018-08-23T12:33:27.418Z,1007.89
2018-08-23T12:34:37.094Z,1007.84
2018-08-23T12:35:46.798Z,1007.9
2018-08-23T12:36:55.952Z,1007.85
2018-08-23T12:38:05.158Z,1007.87
2018-08-23T12:39:14.612Z,1007.82
2018-08-23T12:40:24.106Z,1007.88
2018-08-23T12:41:33.648Z,1007.87
2018-08-23T12:42:42.806Z,1007.91
2018-08-23T12:43:52.622Z,1007.79
2018-08-23T12:45:01.448Z,1007.89
2018-08-23T12:46:11.458Z,1007.86
2018-08-23T12:47:21.234Z,1007.81
2018-08-23T12:48:30.135Z,1007.77
2018-08-23T12:49:39.333Z,1007.74
2018-08-23T12:50:49.688Z,1007.73
2018-08-23T12:51:59.356Z,1007.69
2018-08-23T12:53:08.337Z,1007.77
2018-08-23T12:54:18.497Z,1007.63
2018-08-23T12:55:27.905Z,1007.64
2018-08-23T12:56:37.564Z,1007.63
2018-08-23T12:57:46.713Z,1007.61
2018-08-23T12:58:56.136Z,1007.58
2018-08-23T13:00:05.310Z,1007.58
2018-08-23T13:01:15.226Z,1007.57
2018-08-23T13:02:25.146Z,1007.5
2018-08-23T13:03:35.433Z,1007.55
2018-08-23T13:04:44.989Z,1007.47
2018-08-23T13:05:53.905Z,1007.48
2018-08-23T13:07:02.872Z,1007.5
2018-08-23T13:08:12.141Z,1007.52
2018-08-23T13:09:22.163Z,1007.49
2018-08-23T13:10:31.845Z,1007.5
2018-08-23T13:11:41.259Z,1007.49
2018-08-23T13:12:50.418Z,1007.46
2018-08-23T13:13:59.850Z,1007.46
2018-08-23T13:15:09.278Z,1007.45
2018-08-23T13:16:19.226Z,1007.45
2018-08-23T13:17:28.949Z,1007.44
2018-08-23T13:18:39.346Z,1007.4
2018-08-23T13:19:49.100Z,1007.43
2018-08-23T13:20:58.563Z,1007.37
2018-08-23T13:22:07.739Z,1007.34
2018-08-23T13:23:17.433Z,1007.3
2018-08-23T13:24:26.873Z,1007.3
2018-08-23T13:25:35.789Z,1007.28
2018-08-23T13:26:45.470Z,1007.32
2018-08-23T13:27:54.376Z,1007.3
2018-08-23T13:29:04.314Z,1007.24
2018-08-23T13:30:13.989Z,1007.25
2018-08-23T13:31:24.085Z,1007.26
2018-08-23T13:32:33.330Z,1007.25
2018-08-23T13:33:42.990Z,1007.25
2018-08-23T13:34:52.151Z,1007.24
2018-08-23T13:36:01.858Z,1007.27
2018-08-23T13:37:11.857Z,1007.2
2018-08-23T13:38:21.528Z,1007.14
2018-08-23T13:39:31.583Z,1007.12
2018-08-23T13:40:40.735Z,1007.08
2018-08-23T13:41:49.684Z,1006.99
2018-08-23T13:42:58.969Z,1007.08
2018-08-23T13:44:08.538Z,1007.06
2018-08-23T13:45:17.955Z,1007.07
2018-08-23T13:46:27.792Z,1007.14
2018-08-23T13:47:37.224Z,1007.06
2018-08-23T13:48:46.691Z,1007.1
2018-08-23T13:49:56.103Z,1007.08
2018-08-23T13:51:05.771Z,1007.14
2018-08-23T13:52:15.493Z,1007.06
2018-08-23T13:53:24.407Z,1007.03
2018-08-23T13:54:33.871Z,1007.01
2018-08-23T13:55:43.929Z,1007.03
2018-08-23T13:56:53.434Z,1007.05
2018-08-23T13:58:02.344Z,1006.98
2018-08-23T13:59:11.643Z,1006.97
2018-08-23T14:00:21.422Z,1006.94
2018-08-23T14:01:31.141Z,1006.9
2018-08-23T14:02:40.639Z,1006.95
2018-08-23T14:03:49.867Z,1006.97